aviador You're here:

CYKF Decoded Metar

WATERLOO in ON, CANADA
Report Time2017-09-24 22:00:00
UTC Time2017-09-24 23:09:23
Flight Rules Old
Wind290° at 03 kt
W.Decomp.*RWY 32: 2.8 kt HW 1 kt LCW
RWY 26: 2.3 kt HW 1.9 kt RCW
W.Rank290° ranks 3
Current wind is below 290° avg. (9.7)
Visibility9999 m
Phenomena:N/A
Clouds:N/A
Expected CloudBase > 4,000 ft AGL from Temp-Dew spread
CeilingNone
Temp30°C (ISA +17)
Dew Point20°C (55% RH)
Heat Index31.9°C
QNH1020 hPa
Density Alt3,071 ft
Elevation1,040 ft
Report Wrong Elevation
Raw Report
CYKF 242200Z AUTO 29003KT 9SM CLR 30/20 A3011 RMK SLP193 DENSITY
ALT 2800FT=

Extra information for CYKF:More info

Metar Taf Metar & Taf Last 4 Metars F.Rules Stats Wind Profile Meteogram Temp Stats Airport Information Weather charts Add Link Nearby VenuesMetar ALERT Operation Metar Decoded Social comments